createdAt,value
2022-08-21T00:01:38.720Z,101564.88
2022-08-21T00:04:08.942Z,101562.53
2022-08-21T00:06:37.718Z,101562.06
2022-08-21T00:09:06.922Z,101561.44
2022-08-21T00:11:36.044Z,101549.41
2022-08-21T00:14:03.645Z,101556.75
2022-08-21T00:16:30.343Z,101548.50
2022-08-21T00:18:56.759Z,101552.03
2022-08-21T00:21:23.377Z,101550.38
2022-08-21T00:23:49.886Z,101551.88
2022-08-21T00:26:16.328Z,101551.19
2022-08-21T00:28:42.722Z,101548.03
2022-08-21T00:31:09.148Z,101544.72
2022-08-21T00:33:35.639Z,101543.03
2022-08-21T00:36:02.451Z,101549.75
2022-08-21T00:38:28.843Z,101547.06
2022-08-21T00:40:58.549Z,101553.91
2022-08-21T00:43:31.455Z,101530.50
2022-08-21T00:45:58.872Z,101542.03
2022-08-21T00:48:26.033Z,101547.03
2022-08-21T00:50:59.029Z,101545.97
2022-08-21T00:53:26.073Z,101547.03
2022-08-21T00:55:53.068Z,101548.50
2022-08-21T00:58:24.677Z,101536.91
2022-08-21T01:00:52.954Z,101543.59
2022-08-21T01:03:23.691Z,101543.59
2022-08-21T01:05:51.195Z,101545.03
2022-08-21T01:08:18.860Z,101539.84
2022-08-21T01:10:46.690Z,101541.09
2022-08-21T01:13:19.589Z,101532.81
2022-08-21T01:15:49.770Z,101529.72
2022-08-21T01:18:17.546Z,101544.47
2022-08-21T01:21:05.849Z,101522.56
2022-08-21T01:23:33.505Z,101542.78
2022-08-21T01:25:59.972Z,101539.84
2022-08-21T01:28:28.857Z,101541.50
2022-08-21T01:30:56.153Z,101532.19
2022-08-21T01:33:25.451Z,101541.28
2022-08-21T01:35:52.084Z,101534.84
2022-08-21T01:38:18.823Z,101537.38
2022-08-21T01:40:45.450Z,101536.09
2022-08-21T01:43:11.895Z,101537.97
2022-08-21T01:45:38.465Z,101532.81
2022-08-21T01:48:05.015Z,101535.69
2022-08-21T01:50:31.988Z,101529.78
2022-08-21T01:52:58.833Z,101534.19
2022-08-21T01:55:25.581Z,101527.63
2022-08-21T01:57:52.095Z,101529.06
2022-08-21T02:00:21.339Z,101523.50
2022-08-21T02:02:47.739Z,101521.66
2022-08-21T02:05:14.563Z,101513.19
2022-08-21T02:07:51.514Z,101514.84
2022-08-21T02:10:22.404Z,101518.78
2022-08-21T02:12:48.889Z,101504.09
2022-08-21T02:15:15.591Z,101506.38
2022-08-21T02:17:48.341Z,101504.09
2022-08-21T02:20:36.907Z,101505.97
2022-08-21T02:23:05.137Z,101512.22
2022-08-21T02:25:32.539Z,101511.38
2022-08-21T02:28:00.384Z,101509.91
2022-08-21T02:30:34.584Z,101488.97
2022-08-21T02:33:01.750Z,101508.00
2022-08-21T02:35:28.578Z,101499.75
2022-08-21T02:37:59.634Z,101505.13
2022-08-21T02:40:29.445Z,101488.63
2022-08-21T02:42:55.912Z,101502.72
2022-08-21T02:45:22.405Z,101503.97
2022-08-21T02:47:54.474Z,101503.75
2022-08-21T02:50:23.880Z,101494.88
2022-08-21T02:52:55.165Z,101489.41
2022-08-21T02:55:23.601Z,101481.16
2022-08-21T02:57:50.549Z,101483.41
2022-08-21T03:00:17.509Z,101483.13
2022-08-21T03:02:45.497Z,101480.44
2022-08-21T03:05:12.461Z,101486.88
2022-08-21T03:07:40.062Z,101486.41
2022-08-21T03:10:07.541Z,101480.78
2022-08-21T03:12:36.383Z,101480.34
2022-08-21T03:15:05.697Z,101472.25
2022-08-21T03:17:32.146Z,101481.63
2022-08-21T03:19:58.654Z,101468.31
2022-08-21T03:22:25.745Z,101461.84
2022-08-21T03:24:54.313Z,101470.63
2022-08-21T03:27:20.747Z,101461.84
2022-08-21T03:29:49.233Z,101463.06
2022-08-21T03:32:15.780Z,101460.75
2022-08-21T03:34:43.068Z,101464.47
2022-08-21T03:37:11.798Z,101461.53
2022-08-21T03:39:38.518Z,101453.13
2022-08-21T03:42:05.955Z,101455.84
2022-08-21T03:44:33.572Z,101456.13
2022-08-21T03:47:00.075Z,101450.81
2022-08-21T03:49:27.156Z,101460.66
2022-08-21T03:51:59.153Z,101458.00
2022-08-21T03:54:26.541Z,101461.53
2022-08-21T03:56:55.443Z,101456.59
2022-08-21T03:59:21.893Z,101458.22
2022-08-21T04:01:57.454Z,101465.31
2022-08-21T04:04:24.742Z,101454.34
2022-08-21T04:06:51.350Z,101453.50
2022-08-21T04:09:18.890Z,101455.97
2022-08-21T04:11:46.967Z,101462.28
2022-08-21T04:14:15.278Z,101449.72
2022-08-21T04:16:43.107Z,101456.19
2022-08-21T04:19:10.068Z,101454.81
2022-08-21T04:21:38.689Z,101461.78
2022-08-21T04:24:06.849Z,101465.78
2022-08-21T04:26:34.386Z,101470.19
2022-08-21T04:29:01.450Z,101471.00
2022-08-21T04:31:29.523Z,101473.44
2022-08-21T04:33:57.634Z,101471.50
2022-08-21T04:36:24.569Z,101483.34
2022-08-21T04:38:52.632Z,101475.25
2022-08-21T04:41:25.106Z,101486.66
2022-08-21T04:43:56.176Z,101488.13
2022-08-21T04:46:23.342Z,101487.16
2022-08-21T04:48:50.786Z,101483.84
2022-08-21T04:51:21.002Z,101459.81
2022-08-21T04:54:01.491Z,101472.34
2022-08-21T04:56:32.511Z,101485.00
2022-08-21T04:59:04.614Z,101486.88
2022-08-21T05:01:35.495Z,101489.88
2022-08-21T05:04:05.438Z,101486.31
2022-08-21T05:06:34.852Z,101490.06
2022-08-21T05:09:02.491Z,101492.84
2022-08-21T05:11:31.643Z,101490.94
2022-08-21T05:13:58.135Z,101477.81
2022-08-21T05:16:36.785Z,101484.41
2022-08-21T05:19:06.385Z,101491.47
2022-08-21T05:21:33.808Z,101482.31
2022-08-21T05:24:00.628Z,101479.53
2022-08-21T05:26:27.068Z,101478.34
2022-08-21T05:28:53.477Z,101485.22
2022-08-21T05:31:19.877Z,101493.72
2022-08-21T05:33:46.287Z,101494.41
2022-08-21T05:36:12.695Z,101492.31
2022-08-21T05:38:39.082Z,101484.13
2022-08-21T05:41:05.631Z,101491.34
2022-08-21T05:43:33.940Z,101487.59
2022-08-21T05:46:00.696Z,101489.91
2022-08-21T05:48:27.307Z,101485.09
2022-08-21T05:50:54.066Z,101488.19
2022-08-21T05:53:23.381Z,101466.88
2022-08-21T05:55:50.524Z,101486.69
2022-08-21T05:58:19.396Z,101451.72
2022-08-21T06:00:48.653Z,101471.97
2022-08-21T06:03:25.075Z,101481.59
2022-08-21T06:05:52.141Z,101482.34
2022-08-21T06:08:19.246Z,101486.22
2022-08-21T06:10:46.846Z,101489.09
2022-08-21T06:13:14.291Z,101493.59
2022-08-21T06:15:40.789Z,101489.19
2022-08-21T06:18:07.459Z,101489.56
2022-08-21T06:20:34.229Z,101491.59
2022-08-21T06:23:01.380Z,101494.66
2022-08-21T06:25:28.259Z,101483.16
2022-08-21T06:28:01.863Z,101490.16
2022-08-21T06:30:28.406Z,101486.97
2022-08-21T06:32:55.131Z,101482.19
2022-08-21T06:35:21.615Z,101484.78
2022-08-21T06:37:48.047Z,101479.75
2022-08-21T06:40:14.493Z,101463.75
2022-08-21T06:42:42.746Z,101482.72
2022-08-21T06:45:10.663Z,101482.00
2022-08-21T06:47:37.411Z,101491.91
2022-08-21T06:50:04.682Z,101486.84
2022-08-21T06:52:31.353Z,101492.41
2022-08-21T06:54:57.736Z,101487.81
2022-08-21T06:57:24.189Z,101493.13
2022-08-21T06:59:50.577Z,101495.81
2022-08-21T07:02:17.007Z,101499.88
2022-08-21T07:04:43.473Z,101479.03
2022-08-21T07:07:10.065Z,101485.38
2022-08-21T07:09:36.510Z,101490.13
2022-08-21T07:12:03.447Z,101483.75
2022-08-21T07:14:29.872Z,101497.22
2022-08-21T07:16:56.872Z,101481.19
2022-08-21T07:19:23.311Z,101489.69
2022-08-21T07:21:49.801Z,101491.91
2022-08-21T07:24:16.318Z,101495.81
2022-08-21T07:26:43.020Z,101494.50
2022-08-21T07:29:09.884Z,101498.03
2022-08-21T07:31:36.459Z,101493.94
2022-08-21T07:34:03.155Z,101502.63
2022-08-21T07:36:29.596Z,101483.56
2022-08-21T07:38:59.790Z,101496.06
2022-08-21T07:41:29.533Z,101500.41
2022-08-21T07:43:59.855Z,101501.59
2022-08-21T07:46:28.990Z,101508.50
2022-08-21T07:48:55.716Z,101499.34
2022-08-21T07:51:27.850Z,101496.41
2022-08-21T07:53:57.120Z,101504.88
2022-08-21T07:56:23.713Z,101504.53
2022-08-21T07:58:50.167Z,101511.00
2022-08-21T08:01:16.709Z,101500.97
2022-08-21T08:03:43.453Z,101511.56
2022-08-21T08:06:13.199Z,101509.22
2022-08-21T08:08:41.654Z,101510.28
2022-08-21T08:11:11.784Z,101500.72
2022-08-21T08:13:41.209Z,101496.50
2022-08-21T08:16:07.889Z,101509.31
2022-08-21T08:18:34.318Z,101507.09
2022-08-21T08:21:00.923Z,101508.16
2022-08-21T08:23:28.271Z,101512.41
2022-08-21T08:25:55.003Z,101513.00
2022-08-21T08:28:22.794Z,101504.50
2022-08-21T08:30:50.493Z,101500.72
2022-08-21T08:33:17.943Z,101503.22
2022-08-21T08:35:47.194Z,101505.56
2022-08-21T08:38:19.644Z,101507.53
2022-08-21T08:40:56.550Z,101504.88
2022-08-21T08:43:23.575Z,101490.75
2022-08-21T08:45:54.767Z,101495.97
2022-08-21T08:48:49.367Z,101487.97
2022-08-21T08:51:27.128Z,101483.13
2022-08-21T08:54:01.355Z,101472.25
2022-08-21T08:56:32.519Z,101462.91
2022-08-21T08:59:09.453Z,101473.41
2022-08-21T09:01:38.970Z,101469.16
2022-08-21T09:04:07.433Z,101473.97
2022-08-21T09:06:41.289Z,101459.69
2022-08-21T09:09:16.921Z,101482.81
2022-08-21T09:11:53.476Z,101471.25
2022-08-21T09:14:44.869Z,101483.59
2022-08-21T09:17:14.758Z,101482.94
2022-08-21T09:20:12.828Z,101490.44
2022-08-21T09:25:15.667Z,101486.53
2022-08-21T09:27:42.473Z,101486.13
2022-08-21T09:30:10.938Z,101475.44
2022-08-21T09:32:39.290Z,101470.53
2022-08-21T09:35:11.063Z,101479.69
2022-08-21T09:37:52.597Z,101482.91
2022-08-21T09:40:33.769Z,101482.97
2022-08-21T09:43:22.484Z,101491.56
2022-08-21T09:45:50.589Z,101483.44
2022-08-21T09:48:27.196Z,101477.22
2022-08-21T09:51:36.720Z,101483.81
2022-08-21T09:54:08.769Z,101482.94
2022-08-21T09:56:58.553Z,101482.94
2022-08-21T09:59:24.899Z,101473.16
2022-08-21T10:01:53.774Z,101472.97
2022-08-21T10:04:23.788Z,101458.09
2022-08-21T10:06:50.532Z,101467.00
2022-08-21T10:09:21.661Z,101466.38
2022-08-21T10:12:20.574Z,101473.94
2022-08-21T10:15:08.741Z,101469.09
2022-08-21T10:18:05.079Z,101473.50
2022-08-21T10:20:47.033Z,101466.63
2022-08-21T10:23:19.115Z,101476.25
2022-08-21T10:26:12.947Z,101480.03
2022-08-21T10:29:04.734Z,101474.88
2022-08-21T10:31:37.184Z,101474.16
2022-08-21T10:34:06.741Z,101470.69
2022-08-21T10:36:43.404Z,101480.94
2022-08-21T10:39:39.892Z,101479.72
2022-08-21T10:42:33.851Z,101459.75
2022-08-21T10:45:12.455Z,101461.03
2022-08-21T10:47:47.632Z,101479.81
2022-08-21T10:50:42.649Z,101484.09
2022-08-21T10:53:30.029Z,101486.22
2022-08-21T10:56:02.838Z,101480.19
2022-08-21T10:58:38.044Z,101489.63
2022-08-21T11:01:17.624Z,101483.72
2022-08-21T11:04:02.359Z,101478.81
2022-08-21T11:06:33.541Z,101490.66
2022-08-21T11:09:10.955Z,101494.25
2022-08-21T11:12:25.708Z,101498.63
2022-08-21T11:15:28.710Z,101497.75
2022-08-21T11:18:12.667Z,101495.22
2022-08-21T11:20:59.918Z,101498.06
2022-08-21T11:23:34.914Z,101499.34
2022-08-21T11:26:11.851Z,101498.03
2022-08-21T11:28:53.131Z,101503.50
2022-08-21T11:31:47.370Z,101509.81
2022-08-21T11:34:36.419Z,101507.75
2022-08-21T11:37:08.071Z,101506.56
2022-08-21T11:40:01.479Z,101486.25
2022-08-21T11:42:46.037Z,101511.34
2022-08-21T11:45:38.541Z,101508.09
2022-08-21T11:48:32.416Z,101498.97
2022-08-21T11:51:01.480Z,101500.97
2022-08-21T11:53:37.501Z,101500.78
2022-08-21T11:56:24.017Z,101477.59
2022-08-21T11:58:56.381Z,101502.81
2022-08-21T12:01:42.044Z,101507.22
2022-08-21T12:04:28.917Z,101500.72
2022-08-21T12:06:57.005Z,101507.84
2022-08-21T12:09:26.534Z,101507.84
2022-08-21T12:12:33.202Z,101490.31
2022-08-21T12:15:27.444Z,101499.94
2022-08-21T12:17:59.405Z,101499.75
2022-08-21T12:20:34.613Z,101504.06
2022-08-21T12:23:13.382Z,101503.47
2022-08-21T12:25:46.060Z,101506.47
2022-08-21T12:28:16.346Z,101493.88
2022-08-21T12:30:46.317Z,101509.22
2022-08-21T12:33:18.755Z,101511.63
2022-08-21T12:35:46.186Z,101518.13
2022-08-21T12:38:24.780Z,101499.75
2022-08-21T12:41:26.146Z,101523.25
2022-08-21T12:44:00.039Z,101518.28
2022-08-21T12:46:40.699Z,101525.38
2022-08-21T12:49:26.947Z,101519.63
2022-08-21T12:52:04.217Z,101510.56
2022-08-21T12:54:38.462Z,101519.88
2022-08-21T12:57:07.485Z,101516.31
2022-08-21T12:59:39.321Z,101532.22
2022-08-21T13:02:25.255Z,101526.28
2022-08-21T13:04:54.081Z,101524.91
2022-08-21T13:07:27.710Z,101525.16
2022-08-21T13:09:59.101Z,101536.06
2022-08-21T13:12:29.591Z,101527.06
2022-08-21T13:15:04.642Z,101529.50
2022-08-21T13:17:39.569Z,101529.44
2022-08-21T13:20:20.758Z,101525.88
2022-08-21T13:22:47.458Z,101522.84
2022-08-21T13:25:16.452Z,101525.88
2022-08-21T13:27:45.153Z,101526.47
2022-08-21T13:30:15.340Z,101524.00
2022-08-21T13:32:51.157Z,101529.50
2022-08-21T13:35:22.138Z,101524.91
2022-08-21T13:37:52.641Z,101525.19
2022-08-21T13:40:40.706Z,101514.28
2022-08-21T13:43:14.343Z,101519.44
2022-08-21T13:45:51.913Z,101518.13
2022-08-21T13:48:19.279Z,101517.03
2022-08-21T13:50:46.747Z,101517.59
2022-08-21T13:53:43.690Z,101522.81
2022-08-21T13:56:10.230Z,101523.16
2022-08-21T13:58:47.614Z,101516.00
2022-08-21T14:01:24.986Z,101524.44
2022-08-21T14:03:54.862Z,101527.34
2022-08-21T14:06:24.950Z,101531.69
2022-08-21T14:08:56.567Z,101522.91
2022-08-21T14:11:23.367Z,101515.78
2022-08-21T14:13:57.866Z,101522.09
2022-08-21T14:16:27.855Z,101527.22
2022-08-21T14:19:10.453Z,101522.88
2022-08-21T14:21:41.717Z,101531.34
2022-08-21T14:24:10.346Z,101531.91
2022-08-21T14:26:46.677Z,101527.00
2022-08-21T14:29:16.563Z,101505.69
2022-08-21T14:31:44.084Z,101515.56
2022-08-21T14:34:19.675Z,101524.00
2022-08-21T14:36:47.247Z,101522.69
2022-08-21T14:39:13.678Z,101519.97
2022-08-21T14:41:40.247Z,101524.31
2022-08-21T14:44:09.618Z,101522.94
2022-08-21T14:46:39.174Z,101519.63
2022-08-21T14:49:20.756Z,101525.88
2022-08-21T14:51:53.935Z,101530.53
2022-08-21T14:54:20.964Z,101532.41
2022-08-21T14:56:49.782Z,101529.41
2022-08-21T14:59:20.853Z,101529.09
2022-08-21T15:01:47.386Z,101531.06
2022-08-21T15:04:13.922Z,101529.09
2022-08-21T15:06:40.350Z,101522.03
2022-08-21T15:09:07.126Z,101518.72
2022-08-21T15:11:42.419Z,101505.06
2022-08-21T15:14:22.431Z,101509.75
2022-08-21T15:16:49.718Z,101522.66
2022-08-21T15:19:16.138Z,101530.25
2022-08-21T15:21:42.698Z,101528.03
2022-08-21T15:24:09.187Z,101530.97
2022-08-21T15:26:36.955Z,101539.75
2022-08-21T15:29:06.875Z,101532.91
2022-08-21T15:31:33.941Z,101531.50
2022-08-21T15:34:00.370Z,101531.44
2022-08-21T15:36:26.894Z,101537.06
2022-08-21T15:38:53.301Z,101522.09
2022-08-21T15:41:19.967Z,101531.88
2022-08-21T15:43:50.406Z,101525.25
2022-08-21T15:46:19.082Z,101512.91
2022-08-21T15:48:47.064Z,101541.34
2022-08-21T15:51:15.190Z,101542.13
2022-08-21T15:53:41.742Z,101541.03
2022-08-21T15:56:18.637Z,101546.53
2022-08-21T15:58:45.087Z,101545.16
2022-08-21T16:01:11.656Z,101529.31
2022-08-21T16:03:39.302Z,101540.84
2022-08-21T16:06:05.934Z,101541.72
2022-08-21T16:08:32.387Z,101549.31
2022-08-21T16:10:58.817Z,101527.81
2022-08-21T16:13:35.484Z,101531.25
2022-08-21T16:16:02.350Z,101541.53
2022-08-21T16:18:29.021Z,101531.91
2022-08-21T16:20:55.502Z,101533.47
2022-08-21T16:23:21.982Z,101524.72
2022-08-21T16:25:49.214Z,101528.97
2022-08-21T16:28:17.989Z,101525.28
2022-08-21T16:30:47.964Z,101528.38
2022-08-21T16:33:25.628Z,101533.66
2022-08-21T16:35:52.281Z,101525.09
2022-08-21T16:38:18.905Z,101540.28
2022-08-21T16:40:45.416Z,101533.28
2022-08-21T16:43:11.877Z,101531.56
2022-08-21T16:45:39.412Z,101533.47
2022-08-21T16:48:09.655Z,101532.41
2022-08-21T16:50:37.741Z,101522.78
2022-08-21T16:53:04.244Z,101522.88
2022-08-21T16:55:30.866Z,101523.72
2022-08-21T16:57:57.297Z,101522.41
2022-08-21T17:00:24.202Z,101523.78
2022-08-21T17:02:54.845Z,101527.06
2022-08-21T17:05:21.494Z,101522.41
2022-08-21T17:07:48.010Z,101523.44
2022-08-21T17:10:16.764Z,101523.97
2022-08-21T17:12:51.362Z,101526.84
2022-08-21T17:15:22.719Z,101527.34
2022-08-21T17:17:50.333Z,101530.47
2022-08-21T17:20:17.677Z,101519.09
2022-08-21T17:22:44.191Z,101524.28
2022-08-21T17:25:11.120Z,101522.88
2022-08-21T17:27:38.804Z,101523.63
2022-08-21T17:30:07.028Z,101516.25
2022-08-21T17:32:33.725Z,101529.25
2022-08-21T17:35:00.116Z,101529.16
2022-08-21T17:37:29.339Z,101532.38
2022-08-21T17:39:56.687Z,101532.88
2022-08-21T17:42:25.155Z,101534.69
2022-08-21T17:44:52.162Z,101525.38
2022-08-21T17:47:18.769Z,101535.13
2022-08-21T17:49:45.276Z,101517.06
2022-08-21T17:52:11.702Z,101523.75
2022-08-21T17:54:38.361Z,101526.34
2022-08-21T17:57:05.605Z,101526.91
2022-08-21T17:59:32.726Z,101520.34
2022-08-21T18:02:01.668Z,101524.34
2022-08-21T18:04:29.845Z,101525.09
2022-08-21T18:06:56.944Z,101523.94
2022-08-21T18:09:27.849Z,101520.88
2022-08-21T18:11:59.344Z,101507.97
2022-08-21T18:14:32.327Z,101520.25
2022-08-21T18:16:59.007Z,101514.72
2022-08-21T18:19:26.227Z,101526.03
2022-08-21T18:21:56.764Z,101521.13
2022-08-21T18:24:23.935Z,101525.84
2022-08-21T18:26:51.892Z,101524.47
2022-08-21T18:29:20.728Z,101523.63
2022-08-21T18:31:47.741Z,101526.59
2022-08-21T18:34:37.424Z,101524.97
2022-08-21T18:37:05.025Z,101525.78
2022-08-21T18:39:36.758Z,101525.44
2022-08-21T18:42:08.669Z,101526.75
2022-08-21T18:44:35.073Z,101525.09
2022-08-21T18:47:05.872Z,101532.75
2022-08-21T18:49:32.315Z,101530.75
2022-08-21T18:52:00.753Z,101529.03
2022-08-21T18:54:30.017Z,101533.50
2022-08-21T18:56:56.510Z,101534.25
2022-08-21T18:59:26.785Z,101536.13
2022-08-21T19:01:53.818Z,101535.53
2022-08-21T19:04:43.221Z,101544.50
2022-08-21T19:07:07.370Z,101539.66
2022-08-21T19:09:33.784Z,101541.06
2022-08-21T19:12:00.363Z,101544.75
2022-08-21T19:14:28.300Z,101548.75
2022-08-21T19:16:54.838Z,101542.53
2022-08-21T19:19:21.486Z,101561.16
2022-08-21T19:21:49.484Z,101562.19
2022-08-21T19:24:17.895Z,101558.94
2022-08-21T19:26:45.064Z,101557.13
2022-08-21T19:29:12.567Z,101561.41
2022-08-21T19:31:44.254Z,101563.28
2022-08-21T19:34:19.936Z,101565.16
2022-08-21T19:36:46.988Z,101561.84
2022-08-21T19:39:15.187Z,101567.75
2022-08-21T19:41:45.932Z,101560.09
2022-08-21T19:44:20.987Z,101563.53
2022-08-21T19:46:49.985Z,101560.91
2022-08-21T19:49:22.150Z,101562.47
2022-08-21T19:51:48.855Z,101563.19
2022-08-21T19:54:21.669Z,101567.91
2022-08-21T19:56:48.614Z,101565.06
2022-08-21T19:59:17.686Z,101533.38
2022-08-21T20:01:44.839Z,101568.22
2022-08-21T20:06:58.257Z,101565.19
2022-08-21T20:09:24.865Z,101560.22
2022-08-21T20:11:57.755Z,101569.19
2022-08-21T20:14:34.115Z,101575.44
2022-08-21T20:17:06.386Z,101571.06
2022-08-21T20:19:32.871Z,101578.13
2022-08-21T20:21:59.796Z,101569.19
2022-08-21T20:24:27.446Z,101576.22
2022-08-21T20:26:54.587Z,101578.25
2022-08-21T20:29:23.969Z,101575.53
2022-08-21T20:31:52.812Z,101575.31
2022-08-21T20:34:19.232Z,101575.91
2022-08-21T20:36:47.392Z,101573.88
2022-08-21T20:39:14.417Z,101568.09
2022-08-21T20:41:41.583Z,101572.91
2022-08-21T20:44:12.771Z,101579.53
2022-08-21T20:46:39.798Z,101580.59
2022-08-21T20:49:08.199Z,101583.53
2022-08-21T20:51:44.852Z,101567.06
2022-08-21T20:54:34.083Z,101581.66
2022-08-21T20:57:14.670Z,101584.81
2022-08-21T20:59:56.738Z,101580.72
2022-08-21T21:02:23.171Z,101577.16
2022-08-21T21:05:00.130Z,101587.16
2022-08-21T21:08:02.032Z,101585.28
2022-08-21T21:10:33.314Z,101587.16
2022-08-21T21:13:08.486Z,101585.53
2022-08-21T21:15:36.176Z,101582.59
2022-08-21T21:18:10.527Z,101589.03
2022-08-21T21:21:06.917Z,101584.94
2022-08-21T21:23:50.548Z,101584.94
2022-08-21T21:26:29.274Z,101579.16
2022-08-21T21:29:22.082Z,101586.81
2022-08-21T21:31:51.336Z,101586.22
2022-08-21T21:34:23.793Z,101582.81
2022-08-21T21:37:02.809Z,101567.31
2022-08-21T21:39:49.889Z,101588.44
2022-08-21T21:42:53.052Z,101590.94
2022-08-21T21:45:36.638Z,101586.78
2022-08-21T21:48:30.578Z,101594.38
2022-08-21T21:51:01.823Z,101588.47
2022-08-21T21:54:03.732Z,101587.72
2022-08-21T21:56:49.730Z,101574.63
2022-08-21T21:59:29.833Z,101583.03
2022-08-21T22:02:08.747Z,101586.09
2022-08-21T22:04:57.917Z,101586.47
2022-08-21T22:07:37.607Z,101577.75
2022-08-21T22:10:30.194Z,101584.97
2022-08-21T22:13:26.323Z,101585.16
2022-08-21T22:16:11.550Z,101578.34
2022-08-21T22:18:46.002Z,101569.34
2022-08-21T22:21:28.912Z,101585.38
2022-08-21T22:24:08.462Z,101583.94
2022-08-21T22:26:43.708Z,101585.00
2022-08-21T22:29:15.003Z,101570.34
2022-08-21T22:31:41.675Z,101583.59
2022-08-21T22:37:05.954Z,101570.34
2022-08-21T22:39:39.043Z,101574.50
2022-08-21T22:42:10.863Z,101578.78
2022-08-21T22:44:49.735Z,101582.53
2022-08-21T22:47:22.628Z,101581.34
2022-08-21T22:49:54.082Z,101581.13
2022-08-21T22:52:24.821Z,101574.03
2022-08-21T22:54:57.572Z,101575.94
2022-08-21T22:57:32.047Z,101560.84
2022-08-21T23:00:34.178Z,101535.69
2022-08-21T23:03:03.586Z,101569.91
2022-08-21T23:05:30.554Z,101568.84
2022-08-21T23:08:16.045Z,101564.13
2022-08-21T23:10:58.421Z,101546.66
2022-08-21T23:13:24.997Z,101563.53
2022-08-21T23:16:07.539Z,101562.03
2022-08-21T23:18:55.921Z,101564.94
2022-08-21T23:21:40.697Z,101565.19
2022-08-21T23:24:19.391Z,101569.78
2022-08-21T23:27:22.899Z,101564.38
2022-08-21T23:30:19.030Z,101562.19
2022-08-21T23:33:16.551Z,101560.78
2022-08-21T23:36:14.487Z,101560.19
2022-08-21T23:39:05.173Z,101546.88
2022-08-21T23:41:46.562Z,101564.53
2022-08-21T23:44:27.123Z,101563.72
2022-08-21T23:47:27.347Z,101552.75
2022-08-21T23:50:14.052Z,101553.94
2022-08-21T23:53:11.353Z,101555.00
2022-08-21T23:55:55.144Z,101550.66
2022-08-21T23:58:36.262Z,101552.31
